createdAt,value
2022-08-20T00:01:24.845Z,100613.66
2022-08-20T00:03:54.028Z,100617.44
2022-08-20T00:06:25.780Z,100624.66
2022-08-20T00:08:54.753Z,100624.63
2022-08-20T00:11:27.524Z,100627.69
2022-08-20T00:14:00.240Z,100625.53
2022-08-20T00:16:33.152Z,100630.56
2022-08-20T00:19:02.556Z,100624.59
2022-08-20T00:21:31.605Z,100621.47
2022-08-20T00:24:00.836Z,100625.25
2022-08-20T00:26:31.228Z,100624.09
2022-08-20T00:29:00.349Z,100626.56
2022-08-20T00:31:29.376Z,100626.38
2022-08-20T00:33:58.506Z,100629.56
2022-08-20T00:36:32.335Z,100625.63
2022-08-20T00:39:02.518Z,100627.91
2022-08-20T00:41:32.973Z,100627.91
2022-08-20T00:44:11.415Z,100627.53
2022-08-20T00:46:41.516Z,100633.72
2022-08-20T00:49:17.570Z,100634.03
2022-08-20T00:51:50.348Z,100622.34
2022-08-20T00:54:22.982Z,100640.50
2022-08-20T00:56:58.932Z,100629.22
2022-08-20T00:59:31.616Z,100634.69
2022-08-20T01:02:02.508Z,100644.44
2022-08-20T01:04:34.376Z,100639.94
2022-08-20T01:07:05.444Z,100650.34
2022-08-20T01:09:58.281Z,100648.16
2022-08-20T01:12:27.417Z,100648.53
2022-08-20T01:14:57.017Z,100649.19
2022-08-20T01:17:30.309Z,100648.72
2022-08-20T01:20:06.255Z,100651.22
2022-08-20T01:23:00.098Z,100655.19
2022-08-20T01:25:36.480Z,100648.75
2022-08-20T01:28:07.374Z,100647.50
2022-08-20T01:30:37.432Z,100644.31
2022-08-20T01:33:06.577Z,100653.66
2022-08-20T01:35:38.498Z,100639.09
2022-08-20T01:38:08.252Z,100648.81
2022-08-20T01:40:51.718Z,100640.16
2022-08-20T01:43:24.227Z,100651.06
2022-08-20T01:45:54.152Z,100644.91
2022-08-20T01:48:24.121Z,100650.81
2022-08-20T01:51:03.189Z,100659.75
2022-08-20T01:53:34.764Z,100655.66
2022-08-20T01:56:03.903Z,100651.31
2022-08-20T01:58:36.671Z,100649.91
2022-08-20T02:01:06.353Z,100646.34
2022-08-20T02:03:39.772Z,100651.75
2022-08-20T02:06:11.888Z,100644.16
2022-08-20T02:08:40.934Z,100647.03
2022-08-20T02:11:10.205Z,100648.63
2022-08-20T02:13:40.976Z,100649.00
2022-08-20T02:16:10.171Z,100650.41
2022-08-20T02:18:39.717Z,100648.81
2022-08-20T02:21:08.829Z,100658.66
2022-08-20T02:23:37.810Z,100649.31
2022-08-20T02:26:07.636Z,100655.47
2022-08-20T02:28:36.725Z,100654.56
2022-08-20T02:31:08.647Z,100650.53
2022-08-20T02:33:37.730Z,100655.41
2022-08-20T02:36:08.767Z,100658.56
2022-08-20T02:38:39.155Z,100661.19
2022-08-20T02:41:08.486Z,100667.72
2022-08-20T02:43:38.567Z,100661.44
2022-08-20T02:46:09.180Z,100656.06
2022-08-20T02:48:38.144Z,100656.31
2022-08-20T02:51:07.906Z,100648.31
2022-08-20T02:53:39.216Z,100655.66
2022-08-20T02:56:08.683Z,100667.13
2022-08-20T02:58:38.014Z,100670.91
2022-08-20T03:01:12.258Z,100681.16
2022-08-20T03:03:41.629Z,100674.75
2022-08-20T03:06:12.904Z,100670.16
2022-08-20T03:08:42.206Z,100678.53
2022-08-20T03:11:12.122Z,100677.53
2022-08-20T03:13:41.073Z,100671.16
2022-08-20T03:16:12.259Z,100676.88
2022-08-20T03:18:43.420Z,100676.09
2022-08-20T03:21:14.669Z,100676.28
2022-08-20T03:23:44.142Z,100671.06
2022-08-20T03:26:14.502Z,100678.97
2022-08-20T03:28:44.084Z,100675.28
2022-08-20T03:31:15.475Z,100676.19
2022-08-20T03:33:52.931Z,100677.81
2022-08-20T03:36:28.592Z,100683.19
2022-08-20T03:38:59.227Z,100689.81
2022-08-20T03:41:28.786Z,100698.88
2022-08-20T03:43:58.076Z,100699.78
2022-08-20T03:46:29.212Z,100705.06
2022-08-20T03:49:00.068Z,100695.75
2022-08-20T03:51:30.806Z,100703.91
2022-08-20T03:54:00.778Z,100690.41
2022-08-20T03:56:29.956Z,100689.00
2022-08-20T03:58:59.124Z,100696.00
2022-08-20T04:01:45.227Z,100691.75
2022-08-20T04:04:15.951Z,100692.44
2022-08-20T04:06:47.594Z,100701.94
2022-08-20T04:09:16.656Z,100687.75
2022-08-20T04:11:45.624Z,100673.88
2022-08-20T04:14:18.647Z,100686.03
2022-08-20T04:16:50.965Z,100693.94
2022-08-20T04:19:21.029Z,100704.38
2022-08-20T04:21:49.987Z,100693.44
2022-08-20T04:24:22.825Z,100701.56
2022-08-20T04:27:02.815Z,100710.50
2022-08-20T04:29:35.358Z,100694.75
2022-08-20T04:32:07.249Z,100689.81
2022-08-20T04:34:36.992Z,100693.06
2022-08-20T04:37:06.462Z,100693.69
2022-08-20T04:40:06.819Z,100690.47
2022-08-20T04:42:38.543Z,100682.88
2022-08-20T04:45:09.978Z,100683.41
2022-08-20T04:47:40.504Z,100685.59
2022-08-20T04:50:11.017Z,100697.25
2022-08-20T04:52:40.274Z,100694.69
2022-08-20T04:55:10.612Z,100698.47
2022-08-20T04:57:39.603Z,100702.69
2022-08-20T05:00:13.080Z,100692.00
2022-08-20T05:02:44.096Z,100695.50
2022-08-20T05:05:14.853Z,100686.88
2022-08-20T05:07:45.963Z,100689.81
2022-08-20T05:10:17.827Z,100696.84
2022-08-20T05:12:57.173Z,100694.94
2022-08-20T05:15:26.747Z,100702.31
2022-08-20T05:18:00.760Z,100697.78
2022-08-20T05:20:31.515Z,100704.00
2022-08-20T05:23:01.166Z,100701.00
2022-08-20T05:25:30.511Z,100699.00
2022-08-20T05:28:00.752Z,100701.59
2022-08-20T05:30:34.106Z,100701.56
2022-08-20T05:33:07.463Z,100707.31
2022-08-20T05:35:38.957Z,100697.50
2022-08-20T05:38:09.435Z,100695.56
2022-08-20T05:40:38.647Z,100702.78
2022-08-20T05:43:08.228Z,100707.31
2022-08-20T05:45:39.156Z,100715.16
2022-08-20T05:48:12.336Z,100712.25
2022-08-20T05:50:42.444Z,100720.91
2022-08-20T05:53:11.628Z,100720.19
2022-08-20T05:55:41.526Z,100713.16
2022-08-20T05:58:17.562Z,100709.97
2022-08-20T06:00:47.250Z,100715.16
2022-08-20T06:03:50.179Z,100718.63
2022-08-20T06:06:45.008Z,100716.00
2022-08-20T06:09:10.181Z,100719.31
2022-08-20T06:11:39.602Z,100706.56
2022-08-20T06:14:08.575Z,100701.97
2022-08-20T06:16:37.813Z,100715.78
2022-08-20T06:19:11.335Z,100703.59
2022-08-20T06:21:41.952Z,100711.88
2022-08-20T06:24:11.112Z,100713.13
2022-08-20T06:26:40.049Z,100711.47
2022-08-20T06:29:09.031Z,100706.38
2022-08-20T06:31:40.071Z,100705.72
2022-08-20T06:34:10.596Z,100706.97
2022-08-20T06:36:39.567Z,100714.63
2022-08-20T06:39:09.072Z,100710.06
2022-08-20T06:41:38.132Z,100693.34
2022-08-20T06:44:08.734Z,100703.25
2022-08-20T06:46:38.527Z,100689.63
2022-08-20T06:49:09.180Z,100701.59
2022-08-20T06:51:40.264Z,100699.28
2022-08-20T06:54:10.870Z,100697.19
2022-08-20T06:56:40.244Z,100687.75
2022-08-20T06:59:09.252Z,100695.25
2022-08-20T07:01:38.536Z,100688.84
2022-08-20T07:04:08.741Z,100693.78
2022-08-20T07:06:40.244Z,100692.56
2022-08-20T07:09:09.760Z,100694.41
2022-08-20T07:11:38.992Z,100696.38
2022-08-20T07:14:08.263Z,100693.97
2022-08-20T07:16:37.839Z,100681.63
2022-08-20T07:19:08.506Z,100677.91
2022-08-20T07:21:37.654Z,100675.97
2022-08-20T07:24:09.801Z,100676.25
2022-08-20T07:26:39.178Z,100679.34
2022-08-20T07:29:08.331Z,100669.69
2022-08-20T07:31:54.857Z,100670.44
2022-08-20T07:34:25.557Z,100658.75
2022-08-20T07:36:55.683Z,100667.81
2022-08-20T07:39:27.768Z,100660.66
2022-08-20T07:42:04.252Z,100665.72
2022-08-20T07:44:33.360Z,100663.31
2022-08-20T07:47:05.725Z,100667.56
2022-08-20T07:49:39.752Z,100666.91
2022-08-20T07:52:09.698Z,100666.63
2022-08-20T07:54:40.428Z,100666.63
2022-08-20T07:57:12.211Z,100656.22
2022-08-20T07:59:41.320Z,100660.94
2022-08-20T08:02:10.719Z,100656.38
2022-08-20T08:04:41.151Z,100664.00
2022-08-20T08:07:10.648Z,100657.75
2022-08-20T08:09:41.636Z,100648.56
2022-08-20T08:12:13.453Z,100660.41
2022-08-20T08:14:46.172Z,100653.34
2022-08-20T08:17:19.287Z,100653.50
2022-08-20T08:19:51.484Z,100644.91
2022-08-20T08:22:21.546Z,100655.59
2022-08-20T08:24:57.111Z,100655.78
2022-08-20T08:27:27.005Z,100660.94
2022-08-20T08:29:56.158Z,100664.94
2022-08-20T08:32:25.280Z,100662.22
2022-08-20T08:34:54.333Z,100663.19
2022-08-20T08:37:23.291Z,100655.81
2022-08-20T08:39:53.722Z,100664.63
2022-08-20T08:42:28.019Z,100661.66
2022-08-20T08:44:58.032Z,100675.09
2022-08-20T08:47:31.004Z,100672.38
2022-08-20T08:50:00.266Z,100675.50
2022-08-20T08:52:33.059Z,100681.41
2022-08-20T08:55:07.487Z,100683.56
2022-08-20T08:57:36.481Z,100683.44
2022-08-20T09:00:22.527Z,100678.78
2022-08-20T09:02:57.585Z,100681.88
2022-08-20T09:05:33.388Z,100683.09
2022-08-20T09:08:04.714Z,100681.91
2022-08-20T09:10:36.080Z,100685.66
2022-08-20T09:13:05.217Z,100683.31
2022-08-20T09:15:34.641Z,100696.72
2022-08-20T09:18:03.855Z,100698.97
2022-08-20T09:20:33.096Z,100692.09
2022-08-20T09:23:02.684Z,100693.09
2022-08-20T09:25:31.988Z,100697.66
2022-08-20T09:28:02.491Z,100699.78
2022-08-20T09:30:32.839Z,100698.97
2022-08-20T09:33:02.674Z,100700.53
2022-08-20T09:35:31.943Z,100695.56
2022-08-20T09:38:01.029Z,100707.72
2022-08-20T09:40:30.429Z,100702.63
2022-08-20T09:42:59.647Z,100701.72
2022-08-20T09:45:30.167Z,100710.75
2022-08-20T09:47:59.575Z,100702.81
2022-08-20T09:50:31.782Z,100699.50
2022-08-20T09:53:03.692Z,100697.09
2022-08-20T09:55:36.872Z,100690.06
2022-08-20T09:58:09.285Z,100686.81
2022-08-20T10:00:39.713Z,100690.69
2022-08-20T10:03:08.993Z,100687.31
2022-08-20T10:05:38.232Z,100684.03
2022-08-20T10:08:07.916Z,100682.41
2022-08-20T10:10:37.044Z,100686.50
2022-08-20T10:13:06.734Z,100670.28
2022-08-20T10:15:38.028Z,100662.16
2022-08-20T10:18:12.261Z,100648.88
2022-08-20T10:20:42.367Z,100655.69
2022-08-20T10:23:11.370Z,100652.81
2022-08-20T10:25:40.739Z,100663.44
2022-08-20T10:28:10.139Z,100666.59
2022-08-20T10:30:39.567Z,100663.59
2022-08-20T10:33:08.696Z,100673.16
2022-08-20T10:35:39.126Z,100675.78
2022-08-20T10:38:08.206Z,100669.72
2022-08-20T10:40:37.152Z,100670.59
2022-08-20T10:43:06.236Z,100667.84
2022-08-20T10:45:35.679Z,100658.44
2022-08-20T10:48:07.669Z,100649.22
2022-08-20T10:50:39.953Z,100654.84
2022-08-20T10:53:08.967Z,100666.38
2022-08-20T10:55:42.166Z,100659.38
2022-08-20T10:58:13.147Z,100652.19
2022-08-20T11:00:42.592Z,100658.72
2022-08-20T11:03:11.576Z,100645.63
2022-08-20T11:05:41.933Z,100649.97
2022-08-20T11:08:10.946Z,100648.34
2022-08-20T11:10:40.548Z,100650.72
2022-08-20T11:13:12.192Z,100648.97
2022-08-20T11:15:43.867Z,100645.00
2022-08-20T11:18:14.323Z,100642.63
2022-08-20T11:20:44.742Z,100642.47
2022-08-20T11:23:13.853Z,100640.63
2022-08-20T11:25:42.769Z,100640.63
2022-08-20T11:28:13.032Z,100638.41
2022-08-20T11:30:42.298Z,100629.09
2022-08-20T11:33:11.296Z,100632.31
2022-08-20T11:35:48.305Z,100627.19
2022-08-20T11:38:20.691Z,100629.19
2022-08-20T11:40:49.754Z,100629.56
2022-08-20T11:43:18.814Z,100626.09
2022-08-20T11:45:49.786Z,100616.22
2022-08-20T11:48:19.143Z,100617.59
2022-08-20T11:50:49.222Z,100605.25
2022-08-20T11:53:19.679Z,100614.97
2022-08-20T11:55:49.177Z,100612.41
2022-08-20T11:58:18.356Z,100606.28
2022-08-20T12:00:47.392Z,100609.75
2022-08-20T12:03:16.931Z,100605.25
2022-08-20T12:05:47.303Z,100597.13
2022-08-20T12:08:26.663Z,100598.75
2022-08-20T12:11:00.038Z,100594.63
2022-08-20T12:13:47.794Z,100598.13
2022-08-20T12:16:18.884Z,100604.56
2022-08-20T12:18:49.005Z,100588.72
2022-08-20T12:21:18.407Z,100582.84
2022-08-20T12:23:47.717Z,100578.03
2022-08-20T12:26:19.252Z,100587.78
2022-08-20T12:28:48.243Z,100582.47
2022-08-20T12:31:17.201Z,100576.78
2022-08-20T12:33:46.251Z,100575.09
2022-08-20T12:36:15.156Z,100576.63
2022-08-20T12:38:44.377Z,100579.69
2022-08-20T12:41:13.429Z,100584.38
2022-08-20T12:43:43.896Z,100575.63
2022-08-20T12:46:13.227Z,100572.97
2022-08-20T12:48:42.287Z,100558.94
2022-08-20T12:51:11.257Z,100555.91
2022-08-20T12:53:40.347Z,100560.84
2022-08-20T12:56:09.908Z,100558.41
2022-08-20T12:58:38.973Z,100559.94
2022-08-20T13:01:09.403Z,100555.03
2022-08-20T13:03:44.892Z,100556.91
2022-08-20T13:06:14.474Z,100569.38
2022-08-20T13:08:46.936Z,100562.88
2022-08-20T13:11:15.813Z,100561.97
2022-08-20T13:13:46.681Z,100545.47
2022-08-20T13:16:17.182Z,100540.94
2022-08-20T13:18:47.289Z,100536.31
2022-08-20T13:21:16.305Z,100541.19
2022-08-20T13:23:45.476Z,100529.25
2022-08-20T13:26:14.773Z,100540.84
2022-08-20T13:28:44.903Z,100536.44
2022-08-20T13:31:14.042Z,100547.91
2022-08-20T13:33:44.478Z,100542.28
2022-08-20T13:36:14.072Z,100544.13
2022-08-20T13:38:43.309Z,100520.53
2022-08-20T13:41:12.321Z,100513.91
2022-08-20T13:43:42.458Z,100498.03
2022-08-20T13:46:11.646Z,100504.38
2022-08-20T13:48:40.668Z,100514.69
2022-08-20T13:51:11.298Z,100518.44
2022-08-20T13:53:41.712Z,100518.13
2022-08-20T13:56:13.022Z,100508.25
2022-08-20T13:58:42.069Z,100499.25
2022-08-20T14:01:11.259Z,100508.97
2022-08-20T14:03:40.433Z,100504.63
2022-08-20T14:06:13.220Z,100491.88
2022-08-20T14:08:43.246Z,100494.81
2022-08-20T14:11:12.823Z,100494.16
2022-08-20T14:13:46.948Z,100488.53
2022-08-20T14:16:21.321Z,100485.06
2022-08-20T14:18:56.814Z,100480.41
2022-08-20T14:21:27.504Z,100488.38
2022-08-20T14:23:58.273Z,100477.44
2022-08-20T14:26:27.266Z,100474.09
2022-08-20T14:28:56.387Z,100483.06
2022-08-20T14:31:25.743Z,100480.66
2022-08-20T14:33:54.755Z,100482.34
2022-08-20T14:36:23.793Z,100465.47
2022-08-20T14:38:54.230Z,100479.00
2022-08-20T14:41:23.338Z,100470.03
2022-08-20T14:43:52.583Z,100463.31
2022-08-20T14:46:21.582Z,100462.47
2022-08-20T14:48:53.260Z,100463.31
2022-08-20T14:51:22.701Z,100463.91
2022-08-20T14:53:53.327Z,100459.38
2022-08-20T14:56:22.255Z,100462.00
2022-08-20T14:58:51.751Z,100466.53
2022-08-20T15:01:21.316Z,100459.50
2022-08-20T15:03:50.446Z,100465.56
2022-08-20T15:06:22.338Z,100471.56
2022-08-20T15:08:51.704Z,100461.00
2022-08-20T15:11:22.562Z,100468.81
2022-08-20T15:13:54.352Z,100467.91
2022-08-20T15:16:23.770Z,100468.00
2022-08-20T15:18:59.778Z,100460.59
2022-08-20T15:21:29.681Z,100459.38
2022-08-20T15:24:19.036Z,100453.94
2022-08-20T15:26:50.570Z,100460.03
2022-08-20T15:29:22.910Z,100458.88
2022-08-20T15:31:52.616Z,100451.56
2022-08-20T15:34:21.781Z,100456.72
2022-08-20T15:36:50.955Z,100458.28
2022-08-20T15:39:20.079Z,100444.78
2022-08-20T15:41:50.742Z,100462.34
2022-08-20T15:44:20.021Z,100456.63
2022-08-20T15:46:49.136Z,100447.53
2022-08-20T15:49:18.300Z,100450.50
2022-08-20T15:51:50.851Z,100452.00
2022-08-20T15:54:23.087Z,100457.06
2022-08-20T15:57:02.862Z,100451.59
2022-08-20T15:59:49.466Z,100455.63
2022-08-20T16:02:40.300Z,100451.00
2022-08-20T16:05:19.885Z,100456.03
2022-08-20T16:08:17.933Z,100456.53
2022-08-20T16:10:55.304Z,100451.41
2022-08-20T16:13:35.785Z,100449.59
2022-08-20T16:16:08.246Z,100448.31
2022-08-20T16:18:39.136Z,100448.16
2022-08-20T16:21:13.262Z,100450.06
2022-08-20T16:23:45.174Z,100446.41
2022-08-20T16:26:33.632Z,100464.47
2022-08-20T16:29:13.160Z,100458.94
2022-08-20T16:31:57.948Z,100451.63
2022-08-20T16:34:34.389Z,100454.31
2022-08-20T16:37:13.336Z,100455.69
2022-08-20T16:39:48.473Z,100458.91
2022-08-20T16:42:22.915Z,100462.75
2022-08-20T16:44:56.798Z,100459.94
2022-08-20T16:47:30.626Z,100458.66
2022-08-20T16:50:03.384Z,100469.97
2022-08-20T16:52:32.627Z,100463.78
2022-08-20T16:55:01.724Z,100470.34
2022-08-20T16:57:32.121Z,100472.28
2022-08-20T17:00:10.937Z,100468.13
2022-08-20T17:02:51.527Z,100481.63
2022-08-20T17:05:22.006Z,100485.34
2022-08-20T17:07:53.095Z,100483.44
2022-08-20T17:10:34.011Z,100492.72
2022-08-20T17:13:12.338Z,100484.50
2022-08-20T17:15:46.057Z,100487.78
2022-08-20T17:18:25.951Z,100480.56
2022-08-20T17:20:55.898Z,100481.41
2022-08-20T17:23:25.411Z,100478.28
2022-08-20T17:26:00.753Z,100482.66
2022-08-20T17:28:35.147Z,100480.09
2022-08-20T17:31:06.421Z,100480.66
2022-08-20T17:33:38.331Z,100472.41
2022-08-20T17:36:11.357Z,100481.16
2022-08-20T17:38:47.902Z,100475.88
2022-08-20T17:41:21.862Z,100473.88
2022-08-20T17:43:59.239Z,100475.16
2022-08-20T17:46:31.787Z,100483.38
2022-08-20T17:49:06.648Z,100480.28
2022-08-20T17:51:40.429Z,100478.47
2022-08-20T17:54:15.864Z,100476.28
2022-08-20T17:56:46.196Z,100474.63
2022-08-20T17:59:24.014Z,100473.72
2022-08-20T18:02:06.585Z,100469.69
2022-08-20T18:04:36.156Z,100474.78
2022-08-20T18:07:14.339Z,100471.13
2022-08-20T18:09:50.547Z,100475.69
2022-08-20T18:12:34.483Z,100466.56
2022-08-20T18:15:20.242Z,100473.94
2022-08-20T18:18:17.234Z,100461.94
2022-08-20T18:21:15.507Z,100466.31
2022-08-20T18:23:48.838Z,100463.16
2022-08-20T18:26:22.015Z,100457.25
2022-08-20T18:28:55.873Z,100460.19
2022-08-20T18:31:29.616Z,100460.72
2022-08-20T18:34:10.829Z,100460.72
2022-08-20T18:36:40.101Z,100461.09
2022-08-20T18:39:12.242Z,100451.81
2022-08-20T18:41:44.917Z,100458.22
2022-08-20T18:44:27.733Z,100468.03
2022-08-20T18:46:58.813Z,100467.41
2022-08-20T18:49:33.562Z,100467.81
2022-08-20T18:52:11.470Z,100470.75
2022-08-20T18:54:44.504Z,100463.38
2022-08-20T18:57:22.586Z,100464.00
2022-08-20T18:59:58.029Z,100468.16
2022-08-20T19:02:32.601Z,100460.13
2022-08-20T19:05:06.717Z,100462.56
2022-08-20T19:07:48.305Z,100463.19
2022-08-20T19:10:34.848Z,100459.56
2022-08-20T19:13:46.266Z,100462.50
2022-08-20T19:16:20.537Z,100465.44
2022-08-20T19:18:54.285Z,100467.25
2022-08-20T19:21:28.773Z,100465.97
2022-08-20T19:24:02.702Z,100457.63
2022-08-20T19:26:34.349Z,100458.56
2022-08-20T19:29:08.869Z,100457.38
2022-08-20T19:31:38.943Z,100474.44
2022-08-20T19:34:19.735Z,100464.28
2022-08-20T19:36:59.267Z,100468.53
2022-08-20T19:39:37.506Z,100465.09
2022-08-20T19:42:18.923Z,100468.94
2022-08-20T19:44:54.411Z,100465.09
2022-08-20T19:47:31.576Z,100473.44
2022-08-20T19:50:15.476Z,100478.50
2022-08-20T21:06:31.775Z,100485.34
2022-08-20T21:09:00.850Z,100489.59
2022-08-20T21:11:29.927Z,100482.16
2022-08-20T21:13:59.016Z,100479.44
2022-08-20T21:16:28.611Z,100478.63
2022-08-20T21:18:58.475Z,100480.47
2022-08-20T21:21:27.680Z,100481.16
2022-08-20T21:23:59.389Z,100481.75
2022-08-20T21:26:30.578Z,100480.72
2022-08-20T21:29:00.118Z,100472.59
2022-08-20T21:31:34.755Z,100481.78
2022-08-20T21:34:04.177Z,100481.78
2022-08-20T21:36:33.489Z,100477.31
2022-08-20T21:39:04.677Z,100482.16
2022-08-20T21:41:34.579Z,100488.00
2022-08-20T21:44:08.263Z,100482.53
2022-08-20T21:46:37.950Z,100482.03
2022-08-20T21:49:07.361Z,100479.53
2022-08-20T21:51:36.651Z,100483.88
2022-08-20T21:54:07.343Z,100482.25
2022-08-20T21:56:37.017Z,100483.16
2022-08-20T21:59:08.708Z,100479.94
2022-08-20T22:01:38.556Z,100476.53
2022-08-20T22:04:07.972Z,100487.84
2022-08-20T22:06:37.381Z,100483.06
2022-08-20T22:09:08.097Z,100479.75
2022-08-20T22:11:37.811Z,100483.16
2022-08-20T22:14:09.763Z,100483.75
2022-08-20T22:16:38.890Z,100489.16
2022-08-20T22:19:16.105Z,100482.75
2022-08-20T22:21:46.065Z,100485.16
2022-08-20T22:24:16.766Z,100491.00
2022-08-20T22:26:45.721Z,100483.69
2022-08-20T22:29:14.751Z,100491.81
2022-08-20T22:31:44.661Z,100485.78
2022-08-20T22:34:15.427Z,100481.97
2022-08-20T22:36:44.575Z,100483.78
2022-08-20T22:39:13.573Z,100483.13
2022-08-20T22:41:44.014Z,100477.53
2022-08-20T22:44:13.165Z,100470.09
2022-08-20T22:46:48.062Z,100476.84
2022-08-20T22:49:22.524Z,100476.84
2022-08-20T22:51:52.739Z,100470.00
2022-08-20T22:54:24.024Z,100474.88
2022-08-20T22:56:55.141Z,100470.34
2022-08-20T22:59:24.655Z,100479.81
2022-08-20T23:01:55.028Z,100468.97
2022-08-20T23:04:28.832Z,100471.34
2022-08-20T23:06:58.755Z,100472.41
2022-08-20T23:09:28.246Z,100471.34
2022-08-20T23:12:00.676Z,100468.63
2022-08-20T23:14:29.867Z,100472.97
2022-08-20T23:17:03.682Z,100472.75
2022-08-20T23:19:32.765Z,100474.34
2022-08-20T23:22:01.785Z,100473.09
2022-08-20T23:24:31.077Z,100478.69
2022-08-20T23:27:01.491Z,100475.28
2022-08-20T23:29:30.840Z,100475.16
2022-08-20T23:32:01.114Z,100473.31
2022-08-20T23:34:30.193Z,100477.09
2022-08-20T23:37:01.576Z,100475.16
2022-08-20T23:39:31.404Z,100468.97
2022-08-20T23:42:02.809Z,100471.38
2022-08-20T23:44:31.960Z,100472.50
2022-08-20T23:47:03.417Z,100463.00
2022-08-20T23:49:33.352Z,100463.16
2022-08-20T23:52:02.473Z,100462.66
2022-08-20T23:54:32.743Z,100466.19
2022-08-20T23:57:08.433Z,100471.69
2022-08-20T23:59:37.674Z,100462.56
